Time;durP1;ratioP1;P1;durP2;ratioP2;P2;SDS_P1;SDS_P2;PMS_P1;PMS_P2;Temp;Humidity;BMP_temperature;BMP_pressure;BME280_temperature;BME280_humidity;BME280_pressure;Samples;Min_cycle;Max_cycle;Signal;HPM_P1;HPM_P2
2024/01/11 00:00:46;;;;;;;41.42;18.08;;;;;;;;;;7367549;19;20018;-74
2024/01/11 00:03:11;;;;;;;40.83;17.48;;;;;;;;;;7389011;19;20044;-72
2024/01/11 00:05:37;;;;;;;37.25;16.58;;;;;;;;;;7366294;19;20499;-72
2024/01/11 00:08:02;;;;;;;41.47;17.83;;;;;;;;;;7366121;19;20077;-73
2024/01/11 00:10:28;;;;;;;44.85;17.40;;;;;;;;;;7369251;19;20114;-73
2024/01/11 00:12:53;;;;;;;36.45;17.02;;;;;;;;;;7370382;19;20080;-73
2024/01/11 00:15:18;;;;;;;43.53;18.02;;;;;;;;;;7375002;19;19998;-72
2024/01/11 00:17:44;;;;;;;39.58;17.20;;;;;;;;;;7394848;19;20010;-72
2024/01/11 00:20:10;;;;;;;37.67;16.63;;;;;;;;;;7369842;19;20006;-73
2024/01/11 00:22:36;;;;;;;42.03;18.00;;;;;;;;;;7368873;19;20918;-73
2024/01/11 00:25:01;;;;;;;38.65;17.30;;;;;;;;;;7363879;19;20016;-72
2024/01/11 00:27:26;;;;;;;39.63;16.75;;;;;;;;;;7361906;19;20027;-72
2024/01/11 00:29:53;;;;;;;36.83;16.77;;;;;;;;;;7385583;19;20107;-72
2024/01/11 00:32:18;;;;;;;43.65;17.83;;;;;;;;;;7364040;19;20014;-72
2024/01/11 00:34:43;;;;;;;43.58;18.13;;;;;;;;;;7362472;19;20018;-72
2024/01/11 00:37:09;;;;;;;43.60;17.85;;;;;;;;;;7364083;19;20010;-72
2024/01/11 00:39:34;;;;;;;40.85;18.15;;;;;;;;;;7365142;19;20482;-72
2024/01/11 00:41:59;;;;;;;36.50;16.60;;;;;;;;;;7387663;19;20003;-73
2024/01/11 00:44:25;;;;;;;37.03;16.92;;;;;;;;;;7362936;19;20010;-73
2024/01/11 00:46:50;;;;;;;37.00;17.15;;;;;;;;;;7363423;19;20066;-73
2024/01/11 00:49:15;;;;;;;41.53;16.90;;;;;;;;;;7365037;19;20006;-73
2024/01/11 00:51:41;;;;;;;41.08;17.73;;;;;;;;;;7365653;19;20122;-73
2024/01/11 00:54:06;;;;;;;39.15;16.77;;;;;;;;;;7385078;19;20512;-73
2024/01/11 00:56:31;;;;;;;43.25;17.88;;;;;;;;;;7365145;19;20006;-73
2024/01/11 00:58:56;;;;;;;42.72;18.58;;;;;;;;;;7364892;19;20014;-72
2024/01/11 01:01:22;;;;;;;41.90;17.60;;;;;;;;;;7366722;19;20009;-73
2024/01/11 01:03:47;;;;;;;44.70;19.40;;;;;;;;;;7363292;19;20587;-73
2024/01/11 01:06:12;;;;;;;47.55;18.25;;;;;;;;;;7388064;19;20006;-74
2024/01/11 01:08:38;;;;;;;42.58;17.65;;;;;;;;;;7370434;19;20005;-73
2024/01/11 01:11:03;;;;;;;38.00;17.55;;;;;;;;;;7371152;19;20023;-73
2024/01/11 01:13:29;;;;;;;38.90;17.58;;;;;;;;;;7369912;19;20002;-73
2024/01/11 01:15:54;;;;;;;46.95;18.83;;;;;;;;;;7367033;19;20006;-72
2024/01/11 01:18:20;;;;;;;42.72;18.67;;;;;;;;;;7365389;19;19999;-73
2024/01/11 01:20:46;;;;;;;41.45;19.20;;;;;;;;;;7389546;19;20005;-73
2024/01/11 01:23:11;;;;;;;39.50;17.25;;;;;;;;;;7365496;19;20013;-74
2024/01/11 01:25:36;;;;;;;43.80;17.85;;;;;;;;;;7368686;19;20009;-73
2024/01/11 01:28:02;;;;;;;38.08;17.40;;;;;;;;;;7374527;19;20020;-72
2024/01/11 01:30:27;;;;;;;38.63;18.52;;;;;;;;;;7371706;19;20331;-73
2024/01/11 01:32:53;;;;;;;38.20;17.02;;;;;;;;;;7390694;19;20013;-73
2024/01/11 01:35:18;;;;;;;43.22;17.35;;;;;;;;;;7366603;19;20011;-73
2024/01/11 01:37:44;;;;;;;35.47;18.08;;;;;;;;;;7366304;19;20410;-73
2024/01/11 01:40:10;;;;;;;37.70;16.17;;;;;;;;;;7368583;19;20006;-73
2024/01/11 01:42:36;;;;;;;47.72;18.08;;;;;;;;;;7366974;19;20042;-73
2024/01/11 01:45:01;;;;;;;45.03;18.38;;;;;;;;;;7387325;19;20534;-72
2024/01/11 01:47:27;;;;;;;44.15;18.88;;;;;;;;;;7365294;19;20002;-73
2024/01/11 01:49:54;;;;;;;47.65;17.90;;;;;;;;;;7363546;19;20405;-73
2024/01/11 01:52:20;;;;;;;42.63;18.60;;;;;;;;;;7366845;19;19999;-73
2024/01/11 01:54:48;;;;;;;42.95;18.45;;;;;;;;;;7362846;19;20018;-73
2024/01/11 01:57:14;;;;;;;43.25;19.02;;;;;;;;;;7383736;19;20002;-73
2024/01/11 01:59:40;;;;;;;39.50;17.50;;;;;;;;;;7379726;19;20002;-73
2024/01/11 02:02:06;;;;;;;38.80;17.98;;;;;;;;;;7363399;19;20013;-73
2024/01/11 02:04:32;;;;;;;43.92;18.15;;;;;;;;;;7360971;19;20082;-73
2024/01/11 02:06:58;;;;;;;42.65;18.67;;;;;;;;;;7363076;19;20002;-73
2024/01/11 02:09:24;;;;;;;39.63;18.23;;;;;;;;;;7367019;19;20024;-72
2024/01/11 02:11:52;;;;;;;41.72;19.17;;;;;;;;;;7392463;19;20003;-73
2024/01/11 02:14:40;;;;;;;43.28;18.67;;;;;;;;;;7367577;19;20010;-72
2024/01/11 02:17:05;;;;;;;41.22;18.73;;;;;;;;;;7368277;19;20009;-73
2024/01/11 02:19:30;;;;;;;39.72;18.25;;;;;;;;;;7368508;19;20756;-73
2024/01/11 02:22:00;;;;;;;43.50;18.50;;;;;;;;;;7367670;19;20073;-72
2024/01/11 02:24:25;;;;;;;44.35;19.30;;;;;;;;;;7364735;19;20022;-73
2024/01/11 02:26:59;;;;;;;42.67;18.55;;;;;;;;;;7387957;19;20844;-73
2024/01/11 02:29:25;;;;;;;44.00;18.60;;;;;;;;;;7366954;19;20317;-72
2024/01/11 02:31:51;;;;;;;37.67;17.58;;;;;;;;;;7366585;19;20010;-72
2024/01/11 02:34:17;;;;;;;45.45;18.17;;;;;;;;;;7365168;19;20852;-73
2024/01/11 02:36:42;;;;;;;42.15;17.70;;;;;;;;;;7366890;19;20003;-73
2024/01/11 02:39:08;;;;;;;44.15;19.02;;;;;;;;;;7392954;19;20006;-74
2024/01/11 02:41:34;;;;;;;40.33;18.38;;;;;;;;;;7367285;19;20006;-73
2024/01/11 02:44:08;;;;;;;43.72;18.38;;;;;;;;;;7371467;19;20002;-72
2024/01/11 02:46:33;;;;;;;41.88;18.15;;;;;;;;;;7374440;19;20337;-72
2024/01/11 02:49:05;;;;;;;41.45;17.40;;;;;;;;;;7373332;19;20010;-73
2024/01/11 02:51:30;;;;;;;44.50;17.92;;;;;;;;;;7374086;19;20010;-72
2024/01/11 02:53:56;;;;;;;52.03;18.42;;;;;;;;;;7393400;19;20314;-72
2024/01/11 02:56:21;;;;;;;51.83;19.33;;;;;;;;;;7372985;19;20113;-72
2024/01/11 02:58:46;;;;;;;42.72;19.92;;;;;;;;;;7372019;19;20022;-72
2024/01/11 03:01:11;;;;;;;45.00;19.25;;;;;;;;;;7373050;19;20492;-72
2024/01/11 03:03:37;;;;;;;41.88;17.85;;;;;;;;;;7371573;19;20430;-72
2024/01/11 03:06:03;;;;;;;45.03;17.92;;;;;;;;;;7392684;19;20108;-72
2024/01/11 03:08:29;;;;;;;40.28;17.33;;;;;;;;;;7369766;19;20010;-72
2024/01/11 03:10:54;;;;;;;42.88;17.63;;;;;;;;;;7370160;19;20017;-72
2024/01/11 03:13:19;;;;;;;54.47;17.92;;;;;;;;;;7369244;19;20026;-72
2024/01/11 03:15:45;;;;;;;60.08;19.52;;;;;;;;;;7370217;19;20082;-73
2024/01/11 03:18:10;;;;;;;60.58;19.13;;;;;;;;;;7393722;19;20032;-72
2024/01/11 03:20:35;;;;;;;45.90;19.52;;;;;;;;;;7368613;19;20056;-72
2024/01/11 03:23:01;;;;;;;49.08;17.83;;;;;;;;;;7367753;19;20560;-72
2024/01/11 03:25:26;;;;;;;45.78;16.77;;;;;;;;;;7368848;19;20455;-71
2024/01/11 03:27:51;;;;;;;53.03;18.38;;;;;;;;;;7366753;19;20011;-72
2024/01/11 03:30:17;;;;;;;51.60;16.17;;;;;;;;;;7368117;19;20020;-72
2024/01/11 03:32:42;;;;;;;42.90;17.75;;;;;;;;;;7389251;19;20002;-73
2024/01/11 03:35:08;;;;;;;53.88;17.40;;;;;;;;;;7365732;19;20360;-73
2024/01/11 03:37:33;;;;;;;40.72;15.75;;;;;;;;;;7367370;19;20010;-74
2024/01/11 03:39:59;;;;;;;35.63;15.98;;;;;;;;;;7370257;19;20070;-73
2024/01/11 03:42:25;;;;;;;37.78;16.48;;;;;;;;;;7371396;19;20010;-73
2024/01/11 03:44:50;;;;;;;40.38;17.20;;;;;;;;;;7390667;19;20002;-72
2024/01/11 03:47:15;;;;;;;41.15;17.25;;;;;;;;;;7369530;19;20006;-72
2024/01/11 03:49:41;;;;;;;38.50;16.30;;;;;;;;;;7366266;19;20027;-72
2024/01/11 03:52:06;;;;;;;42.38;17.10;;;;;;;;;;7367251;19;20023;-72
2024/01/11 03:54:31;;;;;;;38.97;16.63;;;;;;;;;;7365741;19;20134;-73
2024/01/11 03:56:57;;;;;;;38.13;16.15;;;;;;;;;;7387885;19;19998;-73
2024/01/11 03:59:22;;;;;;;39.17;17.33;;;;;;;;;;7366308;19;20033;-73
2024/01/11 04:01:47;;;;;;;36.17;15.82;;;;;;;;;;7367194;19;20086;-73
2024/01/11 04:04:13;;;;;;;41.17;16.95;;;;;;;;;;7365952;19;20010;-73
2024/01/11 04:06:38;;;;;;;35.72;15.65;;;;;;;;;;7368298;19;20425;-74
2024/01/11 04:09:04;;;;;;;40.45;17.27;;;;;;;;;;7387944;19;20722;-73
2024/01/11 04:11:30;;;;;;;38.60;16.40;;;;;;;;;;7366603;19;20006;-73
2024/01/11 04:13:55;;;;;;;35.92;16.13;;;;;;;;;;7364826;19;20003;-73
2024/01/11 04:16:21;;;;;;;40.00;16.70;;;;;;;;;;7367438;19;20011;-73
2024/01/11 04:18:46;;;;;;;49.60;16.42;;;;;;;;;;7365549;19;20518;-73
2024/01/11 04:21:30;;;;;;;39.35;16.27;;;;;;;;;;7389085;19;20478;-74
2024/01/11 04:23:56;;;;;;;35.03;15.48;;;;;;;;;;7364927;19;20025;-73
2024/01/11 04:26:22;;;;;;;37.05;16.23;;;;;;;;;;7366461;19;20485;-73
2024/01/11 04:28:49;;;;;;;34.15;15.68;;;;;;;;;;7365375;19;20008;-73
2024/01/11 04:31:16;;;;;;;40.65;16.58;;;;;;;;;;7365335;19;20403;-74
2024/01/11 04:33:42;;;;;;;36.13;15.90;;;;;;;;;;7365824;19;20003;-74
2024/01/11 04:36:08;;;;;;;37.97;15.75;;;;;;;;;;7395044;19;19995;-73
2024/01/11 04:38:34;;;;;;;40.55;15.88;;;;;;;;;;7368938;19;20006;-73
2024/01/11 04:40:59;;;;;;;41.42;16.08;;;;;;;;;;7369822;19;20448;-73
2024/01/11 04:43:24;;;;;;;39.88;17.38;;;;;;;;;;7366655;19;20002;-73
2024/01/11 04:45:51;;;;;;;40.05;16.08;;;;;;;;;;7366146;19;20018;-73
2024/01/11 04:48:17;;;;;;;36.45;16.58;;;;;;;;;;7364810;19;19998;-73
2024/01/11 04:50:43;;;;;;;38.25;17.38;;;;;;;;;;7388409;19;20020;-73
2024/01/11 04:53:08;;;;;;;42.70;16.83;;;;;;;;;;7360541;19;20014;-73
2024/01/11 04:55:34;;;;;;;37.13;16.70;;;;;;;;;;7367580;19;20014;-72
2024/01/11 04:57:59;;;;;;;41.65;17.20;;;;;;;;;;7364756;19;20396;-73
2024/01/11 05:00:24;;;;;;;38.33;16.42;;;;;;;;;;7366351;19;20011;-73
2024/01/11 05:02:50;;;;;;;36.88;16.08;;;;;;;;;;7385540;19;20035;-73
2024/01/11 05:05:15;;;;;;;41.70;16.30;;;;;;;;;;7362430;19;20086;-73
2024/01/11 05:07:41;;;;;;;38.05;15.15;;;;;;;;;;7363755;19;20438;-72
2024/01/11 05:10:06;;;;;;;38.33;16.13;;;;;;;;;;7365035;19;20078;-73
2024/01/11 05:12:32;;;;;;;36.90;16.15;;;;;;;;;;7365500;19;20575;-72
2024/01/11 05:14:57;;;;;;;41.35;18.40;;;;;;;;;;7387357;19;20679;-74
2024/01/11 05:17:22;;;;;;;40.50;17.60;;;;;;;;;;7364163;19;20039;-73
2024/01/11 05:19:48;;;;;;;41.50;16.75;;;;;;;;;;7364959;19;20560;-73
2024/01/11 05:22:13;;;;;;;43.25;17.38;;;;;;;;;;7365501;19;20007;-73
2024/01/11 05:24:39;;;;;;;58.88;18.70;;;;;;;;;;7363944;19;20010;-73
2024/01/11 05:27:04;;;;;;;47.45;18.02;;;;;;;;;;7385772;19;20058;-74
2024/01/11 05:29:29;;;;;;;47.28;18.02;;;;;;;;;;7364118;19;20010;-74
2024/01/11 05:31:55;;;;;;;48.88;19.38;;;;;;;;;;7360319;19;20003;-72
2024/01/11 05:34:20;;;;;;;40.45;19.70;;;;;;;;;;7362907;19;20017;-73
2024/01/11 05:36:46;;;;;;;56.17;21.15;;;;;;;;;;7361545;19;20484;-74
2024/01/11 05:39:11;;;;;;;45.88;19.58;;;;;;;;;;7380604;19;20013;-73
2024/01/11 05:41:36;;;;;;;50.38;20.80;;;;;;;;;;7359422;19;20010;-73
2024/01/11 05:44:02;;;;;;;49.42;19.88;;;;;;;;;;7358936;19;20010;-73
2024/01/11 05:46:27;;;;;;;41.65;17.27;;;;;;;;;;7366068;19;20049;-73
2024/01/11 05:48:52;;;;;;;40.97;17.10;;;;;;;;;;7364114;19;20031;-73
2024/01/11 05:51:18;;;;;;;46.45;18.27;;;;;;;;;;7366368;19;20485;-71
2024/01/11 05:53:43;;;;;;;45.83;19.50;;;;;;;;;;7389074;19;20007;-70
2024/01/11 05:56:09;;;;;;;48.88;20.70;;;;;;;;;;7367965;19;20022;-73
2024/01/11 05:58:36;;;;;;;41.60;18.58;;;;;;;;;;7372778;19;20014;-73
2024/01/11 06:01:02;;;;;;;49.45;19.38;;;;;;;;;;7365005;19;20006;-72
2024/01/11 06:03:28;;;;;;;38.75;19.05;;;;;;;;;;7362948;19;20423;-73
2024/01/11 06:05:53;;;;;;;47.53;18.85;;;;;;;;;;7384970;19;20006;-73
2024/01/11 06:08:18;;;;;;;50.70;19.42;;;;;;;;;;7366163;19;20111;-72
2024/01/11 06:10:44;;;;;;;51.53;19.10;;;;;;;;;;7367635;19;20027;-73
2024/01/11 06:13:09;;;;;;;60.53;19.83;;;;;;;;;;7368295;19;20044;-73
2024/01/11 06:15:34;;;;;;;54.08;17.33;;;;;;;;;;7372804;19;21453;-73
2024/01/11 06:18:00;;;;;;;44.05;18.52;;;;;;;;;;7397805;19;20002;-73
2024/01/11 06:20:25;;;;;;;51.75;18.52;;;;;;;;;;7373814;19;20407;-73
2024/01/11 06:22:50;;;;;;;46.25;17.77;;;;;;;;;;7367896;19;20035;-73
2024/01/11 06:25:16;;;;;;;50.55;18.42;;;;;;;;;;7367563;19;20010;-73
2024/01/11 06:27:43;;;;;;;42.75;17.55;;;;;;;;;;7366193;19;20021;-72
2024/01/11 06:30:09;;;;;;;33.05;16.13;;;;;;;;;;7389824;19;20027;-72
2024/01/11 06:32:34;;;;;;;48.67;16.65;;;;;;;;;;7367303;19;20006;-74
2024/01/11 06:35:00;;;;;;;41.63;19.00;;;;;;;;;;7366614;19;20015;-72
2024/01/11 06:37:25;;;;;;;40.85;17.52;;;;;;;;;;7210946;19;2768737;-73
2024/01/11 06:39:51;;;;;;;42.58;16.83;;;;;;;;;;7364150;19;20010;-72
2024/01/11 06:42:16;;;;;;;44.50;18.33;;;;;;;;;;7362698;19;19998;-74
2024/01/11 06:44:41;;;;;;;44.60;17.65;;;;;;;;;;7386971;19;20107;-72
2024/01/11 06:47:07;;;;;;;44.50;18.67;;;;;;;;;;7369086;19;20037;-72
2024/01/11 06:49:33;;;;;;;48.05;19.67;;;;;;;;;;7370936;19;20729;-73
2024/01/11 06:51:58;;;;;;;45.60;18.50;;;;;;;;;;7369665;19;20038;-72
2024/01/11 06:54:23;;;;;;;43.00;18.92;;;;;;;;;;7364547;19;20002;-73
2024/01/11 06:56:49;;;;;;;64.00;26.98;;;;;;;;;;7390819;19;20027;-72
2024/01/11 06:59:14;;;;;;;52.47;21.45;;;;;;;;;;7367089;19;20432;-73
2024/01/11 07:01:39;;;;;;;50.65;20.25;;;;;;;;;;7365373;19;20007;-73
2024/01/11 07:04:05;;;;;;;43.97;18.38;;;;;;;;;;7364368;19;20006;-72
2024/01/11 07:06:30;;;;;;;43.63;19.30;;;;;;;;;;7368139;19;19999;-72
2024/01/11 07:08:55;;;;;;;47.55;18.55;;;;;;;;;;7390214;19;20009;-73
2024/01/11 07:11:21;;;;;;;40.60;17.85;;;;;;;;;;7373084;19;20007;-73
2024/01/11 07:13:46;;;;;;;47.45;18.48;;;;;;;;;;7364755;19;20041;-73
2024/01/11 07:16:12;;;;;;;45.67;18.95;;;;;;;;;;7373496;19;20022;-73
2024/01/11 07:18:37;;;;;;;67.97;25.77;;;;;;;;;;7370654;19;20006;-73
2024/01/11 07:21:03;;;;;;;57.45;22.67;;;;;;;;;;7394348;19;20007;-73
2024/01/11 07:23:28;;;;;;;46.95;19.90;;;;;;;;;;7364316;19;20010;-72
2024/01/11 07:25:54;;;;;;;42.28;20.55;;;;;;;;;;7367569;19;20010;-72
2024/01/11 07:28:24;;;;;;;45.75;20.23;;;;;;;;;;7367836;19;20011;-73
2024/01/11 07:30:50;;;;;;;50.28;20.98;;;;;;;;;;7368444;19;20002;-73
2024/01/11 07:33:15;;;;;;;47.00;19.90;;;;;;;;;;7366313;19;20509;-73
2024/01/11 07:35:40;;;;;;;47.15;19.92;;;;;;;;;;7386845;19;19994;-73
2024/01/11 07:38:06;;;;;;;43.38;20.05;;;;;;;;;;7367153;19;20002;-73
2024/01/11 07:40:31;;;;;;;52.92;20.42;;;;;;;;;;7365254;19;20654;-73
2024/01/11 07:42:57;;;;;;;45.90;19.00;;;;;;;;;;7364662;19;20022;-73
2024/01/11 07:45:22;;;;;;;49.83;19.60;;;;;;;;;;7362600;19;19994;-73
2024/01/11 07:47:47;;;;;;;49.85;19.27;;;;;;;;;;7386090;19;20008;-73
2024/01/11 07:50:13;;;;;;;42.83;19.95;;;;;;;;;;7364567;19;19999;-73
2024/01/11 07:52:41;;;;;;;45.45;21.65;;;;;;;;;;7365311;19;20042;-74
2024/01/11 07:55:07;;;;;;;49.38;20.38;;;;;;;;;;7364087;19;20025;-73
2024/01/11 07:57:36;;;;;;;52.42;21.33;;;;;;;;;;7365062;19;19994;-73
2024/01/11 08:00:03;;;;;;;48.85;19.75;;;;;;;;;;7386416;19;20049;-73
2024/01/11 08:02:29;;;;;;;48.30;20.50;;;;;;;;;;7366251;19;20018;-73
2024/01/11 08:04:54;;;;;;;51.65;20.63;;;;;;;;;;7367054;19;20053;-72
2024/01/11 08:07:20;;;;;;;47.20;20.83;;;;;;;;;;7367298;19;20574;-73
2024/01/11 08:09:45;;;;;;;47.65;19.42;;;;;;;;;;7369415;19;20010;-72
2024/01/11 08:12:12;;;;;;;46.97;20.65;;;;;;;;;;7386509;19;20009;-72
2024/01/11 08:14:38;;;;;;;47.70;21.63;;;;;;;;;;7362460;19;20002;-71
2024/01/11 08:17:04;;;;;;;50.78;21.27;;;;;;;;;;7362827;19;20111;-72
2024/01/11 08:19:30;;;;;;;41.08;18.80;;;;;;;;;;7364711;19;20480;-72
2024/01/11 08:21:56;;;;;;;45.53;20.80;;;;;;;;;;7365197;19;20014;-72
2024/01/11 08:24:21;;;;;;;45.90;19.92;;;;;;;;;;7368235;19;20317;-73
2024/01/11 08:26:47;;;;;;;44.63;19.98;;;;;;;;;;7390533;19;20008;-73
2024/01/11 08:29:13;;;;;;;45.13;18.90;;;;;;;;;;7370390;19;20357;-73
2024/01/11 08:31:39;;;;;;;42.92;19.60;;;;;;;;;;7367774;19;20013;-72
2024/01/11 08:34:04;;;;;;;43.67;19.45;;;;;;;;;;7363072;19;20070;-72
2024/01/11 08:36:34;;;;;;;38.38;17.98;;;;;;;;;;7362982;19;20739;-72
2024/01/11 08:38:59;;;;;;;45.25;19.42;;;;;;;;;;7384807;19;20023;-72
2024/01/11 08:41:25;;;;;;;42.30;20.02;;;;;;;;;;7362401;19;20409;-72
2024/01/11 08:43:51;;;;;;;44.33;19.05;;;;;;;;;;7361771;19;20122;-72
2024/01/11 08:46:26;;;;;;;46.78;20.05;;;;;;;;;;7362080;19;20006;-73
2024/01/11 08:48:55;;;;;;;43.75;19.60;;;;;;;;;;7361284;19;20018;-73
2024/01/11 08:51:21;;;;;;;47.97;20.45;;;;;;;;;;7361579;19;20053;-73
2024/01/11 08:53:46;;;;;;;41.40;19.55;;;;;;;;;;7382508;19;20734;-72
2024/01/11 08:56:12;;;;;;;46.25;19.98;;;;;;;;;;7364686;19;20002;-73
2024/01/11 08:58:37;;;;;;;42.08;20.25;;;;;;;;;;7359538;19;20022;-73
2024/01/11 09:01:03;;;;;;;40.13;19.88;;;;;;;;;;7362645;19;20010;-73
2024/01/11 09:03:28;;;;;;;46.25;20.35;;;;;;;;;;7361587;19;20002;-73
2024/01/11 09:05:56;;;;;;;41.33;20.23;;;;;;;;;;7383413;19;20003;-73
2024/01/11 09:08:22;;;;;;;43.15;21.10;;;;;;;;;;7362931;19;20002;-73
2024/01/11 09:10:48;;;;;;;40.13;19.00;;;;;;;;;;7361203;19;20687;-73
2024/01/11 09:13:13;;;;;;;40.53;19.70;;;;;;;;;;7361135;19;20010;-73
2024/01/11 09:15:38;;;;;;;49.38;20.75;;;;;;;;;;7362327;19;20014;-73
2024/01/11 09:18:04;;;;;;;46.10;21.13;;;;;;;;;;7383331;19;20002;-72
2024/01/11 09:20:29;;;;;;;44.58;22.38;;;;;;;;;;7361602;19;20006;-73
2024/01/11 09:22:54;;;;;;;49.45;20.95;;;;;;;;;;7361687;19;20111;-72
2024/01/11 09:25:20;;;;;;;44.60;20.40;;;;;;;;;;7362273;19;20006;-72
2024/01/11 09:27:45;;;;;;;44.42;19.17;;;;;;;;;;7361414;19;21226;-74
2024/01/11 09:30:11;;;;;;;48.75;21.48;;;;;;;;;;7385506;19;20006;-74
2024/01/11 09:32:36;;;;;;;39.90;19.25;;;;;;;;;;7361042;19;20014;-73
2024/01/11 09:35:04;;;;;;;44.33;20.40;;;;;;;;;;7357035;19;20012;-73
2024/01/11 09:37:30;;;;;;;48.70;22.05;;;;;;;;;;7359246;19;20019;-73
2024/01/11 09:39:56;;;;;;;43.30;21.80;;;;;;;;;;7354192;19;20088;-73
2024/01/11 09:42:21;;;;;;;41.97;21.02;;;;;;;;;;7362053;19;20457;-73
2024/01/11 09:44:47;;;;;;;41.95;19.90;;;;;;;;;;7382586;19;20002;-73
2024/01/11 09:47:14;;;;;;;42.10;21.45;;;;;;;;;;7355402;19;20013;-73
2024/01/11 09:49:42;;;;;;;42.53;20.13;;;;;;;;;;7361975;19;20006;-73
2024/01/11 09:52:10;;;;;;;44.95;21.25;;;;;;;;;;7361109;19;20030;-73
2024/01/11 09:54:37;;;;;;;43.40;21.80;;;;;;;;;;7359776;19;20452;-74
2024/01/11 09:57:04;;;;;;;42.85;20.88;;;;;;;;;;7380932;19;20010;-73
2024/01/11 09:59:30;;;;;;;45.85;21.35;;;;;;;;;;7363181;19;20009;-73
2024/01/11 10:01:56;;;;;;;45.55;21.92;;;;;;;;;;7363837;19;20444;-73
2024/01/11 10:04:22;;;;;;;50.63;22.65;;;;;;;;;;7362219;19;20010;-73
2024/01/11 10:06:50;;;;;;;43.97;22.02;;;;;;;;;;7361416;19;20035;-73
2024/01/11 10:09:16;;;;;;;53.80;22.92;;;;;;;;;;7362511;19;20010;-73
2024/01/11 10:11:41;;;;;;;42.00;21.75;;;;;;;;;;7381931;19;20381;-73
2024/01/11 10:14:07;;;;;;;42.28;21.50;;;;;;;;;;7357298;19;20102;-73
2024/01/11 10:16:33;;;;;;;47.58;24.30;;;;;;;;;;7362306;19;20003;-73
2024/01/11 10:18:58;;;;;;;49.28;23.10;;;;;;;;;;7363252;19;20507;-73
2024/01/11 10:21:24;;;;;;;46.60;22.33;;;;;;;;;;7379326;19;20392;-73
2024/01/11 10:23:50;;;;;;;50.97;24.58;;;;;;;;;;7385622;19;20018;-73
2024/01/11 10:26:16;;;;;;;44.78;22.02;;;;;;;;;;7360678;19;20110;-73
2024/01/11 10:28:44;;;;;;;44.13;22.02;;;;;;;;;;7359885;19;20042;-73
2024/01/11 10:31:10;;;;;;;48.22;22.70;;;;;;;;;;7368559;19;20002;-73
2024/01/11 10:33:35;;;;;;;45.92;23.08;;;;;;;;;;7367609;19;20093;-73
2024/01/11 10:36:01;;;;;;;50.67;22.90;;;;;;;;;;7388588;19;20009;-73
2024/01/11 10:38:30;;;;;;;47.55;23.80;;;;;;;;;;7372949;19;20003;-74
2024/01/11 10:41:00;;;;;;;48.42;23.83;;;;;;;;;;7369035;19;20009;-74
2024/01/11 10:43:26;;;;;;;52.65;24.95;;;;;;;;;;7372206;19;20502;-74
2024/01/11 10:45:57;;;;;;;52.00;25.73;;;;;;;;;;7366864;19;20557;-74
2024/01/11 10:48:25;;;;;;;42.88;22.75;;;;;;;;;;7365286;19;20481;-74
2024/01/11 10:50:58;;;;;;;47.80;24.58;;;;;;;;;;7388259;19;20006;-74
2024/01/11 10:53:42;;;;;;;51.15;24.20;;;;;;;;;;7363461;19;20536;-73
2024/01/11 10:56:09;;;;;;;48.63;24.25;;;;;;;;;;7366530;19;20002;-74
2024/01/11 10:58:37;;;;;;;45.00;23.30;;;;;;;;;;7365497;19;20009;-74
2024/01/11 11:01:05;;;;;;;48.67;24.02;;;;;;;;;;7367021;19;20078;-75
2024/01/11 11:03:31;;;;;;;48.33;25.02;;;;;;;;;;7365396;19;20003;-74
2024/01/11 11:05:58;;;;;;;50.45;25.77;;;;;;;;;;7386236;19;20070;-74
2024/01/11 11:08:27;;;;;;;45.00;24.23;;;;;;;;;;7365245;19;20031;-74
2024/01/11 11:10:57;;;;;;;45.80;24.55;;;;;;;;;;7366176;19;20031;-74
2024/01/11 11:13:22;;;;;;;51.03;25.15;;;;;;;;;;7364765;19;20006;-74
2024/01/11 11:15:51;;;;;;;46.45;24.90;;;;;;;;;;7364981;19;20010;-74
2024/01/11 11:18:18;;;;;;;49.80;25.67;;;;;;;;;;7362262;19;19999;-74
2024/01/11 11:20:43;;;;;;;49.65;24.83;;;;;;;;;;7385524;19;20101;-74
2024/01/11 11:23:11;;;;;;;44.15;24.00;;;;;;;;;;7363346;19;20010;-74
2024/01/11 11:25:37;;;;;;;48.80;23.35;;;;;;;;;;7365190;19;20010;-74
2024/01/11 11:28:04;;;;;;;52.95;25.63;;;;;;;;;;7364751;19;20006;-75
2024/01/11 11:30:36;;;;;;;47.97;24.67;;;;;;;;;;7365977;19;20059;-75
2024/01/11 11:33:19;;;;;;;46.25;24.50;;;;;;;;;;7389159;19;20010;-74
2024/01/11 11:35:49;;;;;;;50.15;24.45;;;;;;;;;;7367167;19;20002;-75
2024/01/11 11:38:22;;;;;;;54.03;25.80;;;;;;;;;;7366765;19;20011;-75
2024/01/11 11:40:48;;;;;;;45.17;22.73;;;;;;;;;;7363523;19;20006;-74
2024/01/11 11:43:16;;;;;;;53.42;24.83;;;;;;;;;;7363386;19;20557;-74
2024/01/11 11:45:42;;;;;;;45.92;24.45;;;;;;;;;;7369061;19;20013;-74
2024/01/11 11:48:29;;;;;;;54.75;24.58;;;;;;;;;;7394791;19;20006;-75
2024/01/11 11:51:14;;;;;;;51.17;24.33;;;;;;;;;;7365491;19;20114;-74
2024/01/11 11:53:41;;;;;;;45.03;23.23;;;;;;;;;;7362863;19;20006;-73
2024/01/11 11:56:10;;;;;;;47.35;24.77;;;;;;;;;;7365021;19;20099;-73
2024/01/11 11:58:35;;;;;;;40.65;22.63;;;;;;;;;;7365058;19;20095;-74
2024/01/11 12:01:02;;;;;;;45.30;23.90;;;;;;;;;;7365246;19;20019;-74
2024/01/11 12:03:40;;;;;;;48.35;23.45;;;;;;;;;;7363232;19;20006;-74
2024/01/11 12:06:08;;;;;;;49.03;24.40;;;;;;;;;;7384288;19;20006;-74
2024/01/11 12:08:34;;;;;;;46.13;23.98;;;;;;;;;;7362332;19;20042;-74
2024/01/11 12:10:59;;;;;;;47.85;24.40;;;;;;;;;;7364864;19;20002;-73
2024/01/11 12:13:25;;;;;;;47.00;25.60;;;;;;;;;;7363350;19;20014;-74
2024/01/11 12:15:51;;;;;;;46.30;24.80;;;;;;;;;;7364085;19;20011;-73
2024/01/11 12:18:17;;;;;;;49.30;25.15;;;;;;;;;;7362939;19;19995;-73
2024/01/11 12:20:42;;;;;;;51.15;25.75;;;;;;;;;;7386412;19;20020;-73
2024/01/11 12:23:08;;;;;;;43.90;24.25;;;;;;;;;;7363404;19;20069;-73
2024/01/11 12:25:34;;;;;;;44.83;23.60;;;;;;;;;;7362838;19;20013;-73
2024/01/11 12:28:00;;;;;;;44.35;24.00;;;;;;;;;;7363479;19;20011;-72
2024/01/11 12:30:26;;;;;;;57.00;27.38;;;;;;;;;;7364283;19;20032;-73
2024/01/11 12:32:53;;;;;;;47.92;21.98;;;;;;;;;;7382663;19;20042;-73
2024/01/11 12:35:19;;;;;;;54.08;26.02;;;;;;;;;;7364700;19;20480;-73
2024/01/11 12:38:00;;;;;;;54.17;23.75;;;;;;;;;;7362625;19;20002;-72
2024/01/11 12:40:31;;;;;;;;;;;;;;;;;;7364206;19;20003;-72
2024/01/11 12:42:58;;;;;;;47.00;21.92;;;;;;;;;;7362110;19;20035;-74
2024/01/11 12:45:26;;;;;;;53.60;22.98;;;;;;;;;;7361198;19;19994;-73
2024/01/11 12:47:51;;;;;;;48.97;23.02;;;;;;;;;;7384119;19;20070;-72
2024/01/11 12:50:17;;;;;;;44.80;21.15;;;;;;;;;;7361422;19;20523;-73
2024/01/11 12:52:42;;;;;;;49.90;23.08;;;;;;;;;;7364878;19;20005;-72
2024/01/11 12:55:18;;;;;;;47.33;23.05;;;;;;;;;;7372869;19;20013;-72
2024/01/11 12:57:44;;;;;;;52.15;22.20;;;;;;;;;;7372110;19;20009;-72
2024/01/11 13:00:10;;;;;;;49.35;22.98;;;;;;;;;;7390514;19;19999;-73
2024/01/11 13:02:36;;;;;;;45.05;22.08;;;;;;;;;;7367657;19;19998;-72
2024/01/11 13:05:02;;;;;;;49.10;21.75;;;;;;;;;;7367963;19;20074;-74
2024/01/11 13:07:28;;;;;;;50.13;24.50;;;;;;;;;;7368486;19;20006;-72
2024/01/11 13:09:53;;;;;;;55.42;22.10;;;;;;;;;;7369870;19;20755;-73
2024/01/11 13:12:20;;;;;;;49.97;23.85;;;;;;;;;;7367676;19;20078;-74
2024/01/11 13:14:46;;;;;;;53.30;23.40;;;;;;;;;;7388476;19;20062;-73
2024/01/11 13:17:11;;;;;;;47.35;23.55;;;;;;;;;;7364241;19;20608;-73
2024/01/11 13:19:38;;;;;;;50.83;23.42;;;;;;;;;;7364070;19;19995;-74
2024/01/11 13:22:03;;;;;;;47.83;22.48;;;;;;;;;;7364209;19;20014;-73
2024/01/11 13:24:28;;;;;;;45.80;22.67;;;;;;;;;;7362540;19;20002;-74
2024/01/11 13:26:55;;;;;;;49.13;22.05;;;;;;;;;;7383850;19;20003;-73
2024/01/11 13:29:20;;;;;;;48.05;22.00;;;;;;;;;;7362225;19;20028;-73
2024/01/11 13:31:45;;;;;;;51.30;22.58;;;;;;;;;;7366799;19;20002;-73
2024/01/11 13:34:11;;;;;;;48.45;24.48;;;;;;;;;;7362078;19;20010;-73
2024/01/11 13:36:36;;;;;;;46.00;22.27;;;;;;;;;;7364731;19;20015;-73
2024/01/11 13:39:02;;;;;;;54.78;23.25;;;;;;;;;;7383495;19;19999;-73
2024/01/11 13:41:27;;;;;;;49.33;24.10;;;;;;;;;;7360864;19;20008;-73
2024/01/11 13:43:54;;;;;;;50.15;22.88;;;;;;;;;;7361156;19;20077;-73
2024/01/11 13:46:19;;;;;;;72.95;35.50;;;;;;;;;;7350019;19;20827;-73
2024/01/11 13:48:45;;;;;;;71.65;30.58;;;;;;;;;;7360693;19;20015;-73
2024/01/11 13:51:12;;;;;;;49.28;23.48;;;;;;;;;;7382428;19;20002;-73
2024/01/11 13:53:38;;;;;;;47.97;24.10;;;;;;;;;;7359257;19;20006;-73
2024/01/11 13:56:03;;;;;;;54.00;23.92;;;;;;;;;;7361336;19;20034;-73
2024/01/11 13:58:29;;;;;;;51.75;22.25;;;;;;;;;;7358645;19;20002;-73
2024/01/11 14:00:54;;;;;;;50.15;23.25;;;;;;;;;;7361442;19;20221;-73
2024/01/11 14:03:20;;;;;;;46.22;22.05;;;;;;;;;;7359289;19;20565;-73
2024/01/11 14:05:45;;;;;;;52.03;23.73;;;;;;;;;;7384551;19;20006;-73
2024/01/11 14:08:11;;;;;;;53.70;23.20;;;;;;;;;;7365673;19;20049;-73
2024/01/11 14:10:36;;;;;;;48.28;23.63;;;;;;;;;;7367908;19;20010;-73